Spabunker 51 — ECNA — position and weather

sailwx.info

Track history (hours):
 
Tides and Currents Weather Stations Pressure Air Temp Water Temp Dewpoint Dewpoint Depression Visibility Wind Speed Wind Dir Waves Ship Positions

Spabunker 51

Last reported at 2016-Aug-30 02:32 UTC. Time now 2016-Aug-30 20:50 UTC.
Position N 36°11' W 005°24'.

Length 84 m; draft 5.8 m.

Type: Tanker. MMSI: 224322240.

Date/timePositionNaut miles runAvg speedWind from/ knotsBaromVisibWave heightAir tempDewpointWater temp
2016-Aug-30 02:32N 36°11' W 005°24'0 0.0
2016-Aug-29 23:34N 36°11' W 005°24'0 0.0
2016-Aug-29 22:32N 36°11' W 005°24'2 0.2
2016-Aug-29 15:04N 36°09' W 005°24'0 0.1
2016-Aug-29 14:12N 36°09' W 005°24'0 0.1
2016-Aug-29 13:14N 36°09' W 005°24'0 0.1
2016-Aug-29 10:10N 36°09' W 005°24'0 0.0
2016-Aug-29 09:23N 36°09' W 005°24'2 0.1
2016-Aug-28 15:18N 36°08' W 005°25'0 0.0
2016-Aug-28 14:29N 36°08' W 005°25'  
2016-Aug-25 06:07N 36°09' W 005°26'2 0.0
2016-Aug-23 10:19N 36°10' W 005°24'0 0.4
2016-Aug-23 09:30N 36°10' W 005°24'1 0.4
2016-Aug-23 07:13N 36°10' W 005°23'0 0.1
2016-Aug-23 06:05N 36°10' W 005°23'1 0.4
2016-Aug-23 04:30N 36°10' W 005°23'0 0.2
2016-Aug-23 03:30N 36°10' W 005°24'0 0.2
2016-Aug-23 02:25N 36°10' W 005°23'0 0.1
2016-Aug-23 01:33N 36°10' W 005°23'0 0.0
2016-Aug-23 00:33N 36°10' W 005°23'0 0.0
2016-Aug-22 23:33N 36°10' W 005°23'0 0.0
2016-Aug-22 22:31N 36°10' W 005°23'0 0.0
2016-Aug-22 21:29N 36°10' W 005°23'0 0.0
2016-Aug-22 20:33N 36°10' W 005°23'1 0.5
2016-Aug-22 19:10N 36°10' W 005°24'2 0.6
2016-Aug-22 16:27N 36°09' W 005°26'0 0.0
2016-Aug-22 15:27N 36°09' W 005°26'0 0.0
2016-Aug-22 14:33N 36°09' W 005°26'0 0.1
2016-Aug-22 12:22N 36°09' W 005°26'1 0.2
2016-Aug-22 09:10N 36°08' W 005°26'0 0.0
2016-Aug-22 08:30N 36°08' W 005°26'0 0.0
2016-Aug-22 07:30N 36°08' W 005°26'0 0.0
2016-Aug-22 06:31N 36°08' W 005°26'0 0.0
2016-Aug-22 05:31N 36°08' W 005°26'0 0.0
2016-Aug-22 04:33N 36°08' W 005°26'2 1.7
2016-Aug-22 03:33N 36°10' W 005°25'0 0.1
2016-Aug-22 02:32N 36°10' W 005°25'0 0.2
2016-Aug-22 01:29N 36°09' W 005°25'0 0.0
2016-Aug-21 21:33N 36°09' W 005°25'0 0.0
2016-Aug-21 20:33N 36°09' W 005°25'0 0.1
2016-Aug-21 17:22N 36°10' W 005°25'0 0.0
2016-Aug-21 16:33N 36°10' W 005°25'0 0.0
2016-Aug-21 15:33N 36°10' W 005°25'4 2.0
2016-Aug-21 13:33N 36°05' W 005°25'0 0.0
2016-Aug-21 12:33N 36°05' W 005°25'1 0.1
2016-Aug-21 02:33N 36°06' W 005°24'0 0.0
2016-Aug-21 01:32N 36°06' W 005°24'0 0.1
2016-Aug-21 00:33N 36°06' W 005°24'1 0.9
2016-Aug-20 23:32N 36°07' W 005°25'  
Track history (hours):
 
Tides and Currents Weather Stations Pressure Air Temp Water Temp Dewpoint Dewpoint Depression Visibility Wind Speed Wind Dir Waves Ship Positions

Spabunker 51

Last reported at 2016-Aug-30 02:32 UTC. Time now 2016-Aug-30 20:50 UTC.
Position N 36°11' W 005°24'.

Length 84 m; draft 5.8 m.

Type: Tanker. MMSI: 224322240.

Date/timePositionNaut miles runAvg speedWind from/ knotsBaromVisibWave heightAir tempDewpointWater temp
2016-Aug-30 02:32N 36°11' W 005°24'0 0.0
2016-Aug-29 23:34N 36°11' W 005°24'0 0.0
2016-Aug-29 22:32N 36°11' W 005°24'2 0.2
2016-Aug-29 15:04N 36°09' W 005°24'0 0.1
2016-Aug-29 14:12N 36°09' W 005°24'0 0.1
2016-Aug-29 13:14N 36°09' W 005°24'0 0.1
2016-Aug-29 10:10N 36°09' W 005°24'0 0.0
2016-Aug-29 09:23N 36°09' W 005°24'2 0.1
2016-Aug-28 15:18N 36°08' W 005°25'0 0.0
2016-Aug-28 14:29N 36°08' W 005°25'  
2016-Aug-25 06:07N 36°09' W 005°26'2 0.0
2016-Aug-23 10:19N 36°10' W 005°24'0 0.4
2016-Aug-23 09:30N 36°10' W 005°24'1 0.4
2016-Aug-23 07:13N 36°10' W 005°23'0 0.1
2016-Aug-23 06:05N 36°10' W 005°23'1 0.4
2016-Aug-23 04:30N 36°10' W 005°23'0 0.2
2016-Aug-23 03:30N 36°10' W 005°24'0 0.2
2016-Aug-23 02:25N 36°10' W 005°23'0 0.1
2016-Aug-23 01:33N 36°10' W 005°23'0 0.0
2016-Aug-23 00:33N 36°10' W 005°23'0 0.0
2016-Aug-22 23:33N 36°10' W 005°23'0 0.0
2016-Aug-22 22:31N 36°10' W 005°23'0 0.0
2016-Aug-22 21:29N 36°10' W 005°23'0 0.0
2016-Aug-22 20:33N 36°10' W 005°23'1 0.5
2016-Aug-22 19:10N 36°10' W 005°24'2 0.6
2016-Aug-22 16:27N 36°09' W 005°26'0 0.0
2016-Aug-22 15:27N 36°09' W 005°26'0 0.0
2016-Aug-22 14:33N 36°09' W 005°26'0 0.1
2016-Aug-22 12:22N 36°09' W 005°26'1 0.2
2016-Aug-22 09:10N 36°08' W 005°26'0 0.0
2016-Aug-22 08:30N 36°08' W 005°26'0 0.0
2016-Aug-22 07:30N 36°08' W 005°26'0 0.0
2016-Aug-22 06:31N 36°08' W 005°26'0 0.0
2016-Aug-22 05:31N 36°08' W 005°26'0 0.0
2016-Aug-22 04:33N 36°08' W 005°26'2 1.7
2016-Aug-22 03:33N 36°10' W 005°25'0 0.1
2016-Aug-22 02:32N 36°10' W 005°25'0 0.2
2016-Aug-22 01:29N 36°09' W 005°25'0 0.0
2016-Aug-21 21:33N 36°09' W 005°25'0 0.0
2016-Aug-21 20:33N 36°09' W 005°25'0 0.1
2016-Aug-21 17:22N 36°10' W 005°25'0 0.0
2016-Aug-21 16:33N 36°10' W 005°25'0 0.0
2016-Aug-21 15:33N 36°10' W 005°25'4 2.0
2016-Aug-21 13:33N 36°05' W 005°25'0 0.0
2016-Aug-21 12:33N 36°05' W 005°25'1 0.1
2016-Aug-21 02:33N 36°06' W 005°24'0 0.0
2016-Aug-21 01:32N 36°06' W 005°24'0 0.1
2016-Aug-21 00:33N 36°06' W 005°24'1 0.9
2016-Aug-20 23:32N 36°07' W 005°25'  

Dump ship's entire track history